Time;durP1;ratioP1;P1;durP2;ratioP2;P2;SDS_P1;SDS_P2;PMS_P1;PMS_P2;Temp;Humidity;BMP_temperature;BMP_pressure;BME280_temperature;BME280_humidity;BME280_pressure;Samples;Min_cycle;Max_cycle;Signal;HPM_P1;HPM_P2
2022/10/25 00:04:44;;;;;;;0.90;0.60;;;20.00;56.50;;;;;;20706206;28;20389;-89
2022/10/25 00:14:45;;;;;;;2.05;0.50;;;20.00;56.50;;;;;;20744488;28;20045;-88
2022/10/25 00:24:46;;;;;;;1.70;0.60;;;20.00;56.60;;;;;;20716374;28;20030;-91
2022/10/25 00:34:47;;;;;;;0.70;0.50;;;20.00;56.70;;;;;;20685878;28;20068;-90
2022/10/25 00:45:26;;;;;;;1.33;0.38;;;20.00;56.80;;;;;;20718647;28;20044;-89
2022/10/25 00:55:29;;;;;;;0.55;0.50;;;19.90;56.80;;;;;;20681705;28;20065;-89
2022/10/25 01:05:30;;;;;;;0.73;0.40;;;19.90;56.80;;;;;;20709148;28;20058;-90
2022/10/25 01:16:13;;;;;;;1.02;0.70;;;19.90;56.80;;;;;;20718322;28;20034;-88
2022/10/25 01:26:40;;;;;;;0.50;0.28;;;19.90;56.90;;;;;;20677159;28;20099;-89
2022/10/25 01:37:01;;;;;;;1.55;0.28;;;19.90;57.00;;;;;;20720227;28;20507;-87
2022/10/25 01:47:13;;;;;;;0.45;0.38;;;19.90;57.10;;;;;;20696480;28;20050;-88
2022/10/25 01:57:29;;;;;;;0.63;0.40;;;19.90;57.10;;;;;;20689014;28;20465;-89
2022/10/25 02:07:45;;;;;;;;;;;19.90;57.20;;;;;;21067822;23;20066;-88
2022/10/25 02:17:51;;;;;;;2.20;0.30;;;19.80;57.20;;;;;;20691920;28;19909;-89
2022/10/25 02:27:52;;;;;;;1.08;0.50;;;19.80;57.30;;;;;;20742578;28;20109;-89
2022/10/25 02:37:53;;;;;;;2.15;0.32;;;19.80;57.30;;;;;;20652214;28;20113;-87
2022/10/25 02:47:54;;;;;;;1.30;0.30;;;19.80;57.40;;;;;;20700446;28;20122;-87
2022/10/25 02:57:54;;;;;;;1.02;0.30;;;19.80;57.40;;;;;;20685776;28;20392;-87
2022/10/25 03:07:55;;;;;;;0.30;0.30;;;19.70;57.40;;;;;;20666992;28;20073;-87
2022/10/25 03:17:56;;;;;;;1.05;0.50;;;19.70;57.50;;;;;;20683248;28;20109;-88
2022/10/25 03:27:59;;;;;;;0.85;0.43;;;19.70;57.60;;;;;;20665866;28;20407;-88
2022/10/25 03:38:00;;;;;;;1.45;0.50;;;19.80;57.70;;;;;;20705382;28;20034;-87
2022/10/25 03:48:00;;;;;;;0.95;0.35;;;19.70;57.70;;;;;;20714342;28;20045;-88
2022/10/25 03:58:01;;;;;;;0.20;0.20;;;19.70;57.70;;;;;;20685962;28;20030;-89
2022/10/25 04:08:02;;;;;;;0.40;0.20;;;19.60;57.70;;;;;;20745991;28;20030;-88
2022/10/25 04:18:03;;;;;;;0.40;0.20;;;19.60;57.80;;;;;;20710909;28;20029;-87
2022/10/25 04:28:04;;;;;;;0.55;0.30;;;19.70;58.00;;;;;;20701894;28;20034;-87
2022/10/25 04:38:04;;;;;;;0.20;0.20;;;19.60;57.90;;;;;;20708693;28;20097;-88
2022/10/25 04:48:07;;;;;;;0.30;0.30;;;19.60;57.90;;;;;;20722092;28;20045;-89
2022/10/25 04:58:08;;;;;;;0.85;0.30;;;19.60;58.00;;;;;;20709690;28;20038;-89
2022/10/25 05:08:09;;;;;;;1.35;0.30;;;19.60;58.10;;;;;;20683470;28;20066;-89
2022/10/25 05:18:09;;;;;;;0.38;0.25;;;19.60;58.10;;;;;;20656912;28;20030;-89
2022/10/25 05:28:16;;;;;;;1.70;0.65;;;19.60;58.20;;;;;;20702240;28;20046;-89
2022/10/25 05:38:18;;;;;;;0.75;0.40;;;19.60;58.20;;;;;;20723855;28;20033;-88
2022/10/25 05:48:19;;;;;;;0.75;0.30;;;19.60;58.30;;;;;;20738185;28;20084;-88
2022/10/25 05:58:22;;;;;;;0.68;0.30;;;19.60;58.30;;;;;;20714571;28;20022;-88
2022/10/25 06:08:26;;;;;;;0.75;0.30;;;19.50;58.40;;;;;;20685865;28;20523;-88
2022/10/25 06:18:27;;;;;;;0.40;0.30;;;19.50;58.40;;;;;;20703407;28;20037;-88
2022/10/25 06:28:28;;;;;;;0.73;0.35;;;19.50;58.50;;;;;;20679955;28;20148;-87
2022/10/25 06:38:31;;;;;;;0.38;0.30;;;19.50;58.60;;;;;;20687091;28;20037;-86
2022/10/25 06:48:31;;;;;;;1.38;0.30;;;19.50;58.70;;;;;;20676507;28;20156;-87
2022/10/25 06:58:33;;;;;;;0.63;0.32;;;19.40;58.70;;;;;;20670720;28;20124;-87
2022/10/25 07:08:35;;;;;;;0.70;0.30;;;19.50;58.80;;;;;;20676476;28;20037;-88
2022/10/25 07:18:37;;;;;;;0.75;0.40;;;19.40;58.80;;;;;;20678292;28;20046;-89
2022/10/25 07:28:39;;;;;;;1.73;0.57;;;19.40;58.90;;;;;;20683502;28;20074;-88
2022/10/25 07:38:39;;;;;;;1.30;0.40;;;19.40;58.90;;;;;;20684999;28;20088;-88
2022/10/25 07:48:40;;;;;;;3.78;0.65;;;19.40;59.00;;;;;;20711253;28;20038;-87
2022/10/25 07:58:41;;;;;;;0.93;0.40;;;19.40;59.10;;;;;;20715242;28;20100;-89
2022/10/25 08:08:44;;;;;;;2.08;0.50;;;19.30;59.00;;;;;;20710306;28;20671;-88
2022/10/25 08:18:45;;;;;;;1.55;0.45;;;19.40;59.10;;;;;;20715612;28;20033;-86
2022/10/25 08:28:47;;;;;;;1.42;0.45;;;19.40;59.20;;;;;;20740090;28;20061;-88
2022/10/25 08:38:49;;;;;;;2.30;0.50;;;19.30;59.90;;;;;;20725033;28;20522;-88
2022/10/25 08:49:11;;;;;;;2.05;0.50;;;19.40;59.40;;;;;;20712077;28;20153;-89
2022/10/25 08:59:17;;;;;;;1.02;0.55;;;19.30;59.40;;;;;;20686624;28;20038;-87
2022/10/25 09:09:39;;;;;;;0.68;0.35;;;19.30;59.50;;;;;;20692167;28;20092;-88
2022/10/25 09:20:03;;;;;;;1.33;0.57;;;19.30;59.60;;;;;;20725486;28;20040;-88
2022/10/25 09:30:07;;;;;;;0.65;0.50;;;19.30;59.70;;;;;;20696136;28;20065;-87
2022/10/25 09:40:12;;;;;;;1.20;0.38;;;19.30;59.80;;;;;;20731672;28;20060;-87
2022/10/25 09:50:23;;;;;;;2.03;0.63;;;19.20;59.80;;;;;;20714000;28;20393;-87
2022/10/25 10:00:26;;;;;;;2.38;1.02;;;19.30;59.90;;;;;;20727600;28;20171;-87
2022/10/25 10:10:31;;;;;;;6.05;0.85;;;19.20;60.00;;;;;;20642359;28;20034;-86
2022/10/25 10:20:33;;;;;;;3.17;0.90;;;19.20;60.00;;;;;;20726548;28;20062;-86
2022/10/25 10:30:37;;;;;;;3.45;0.70;;;19.30;60.20;;;;;;20704073;28;20045;-84
2022/10/25 10:40:41;;;;;;;3.30;1.30;;;19.20;60.30;;;;;;20682834;28;20026;-85
2022/10/25 10:50:48;;;;;;;2.10;0.88;;;19.20;60.40;;;;;;20692588;28;20049;-87
2022/10/25 11:00:50;;;;;;;2.60;0.77;;;19.20;60.50;;;;;;20703052;28;20058;-85
2022/10/25 11:11:10;;;;;;;6.15;1.17;;;19.20;60.40;;;;;;20669390;28;20553;-86
2022/10/25 11:21:37;;;;;;;3.83;0.82;;;19.30;60.30;;;;;;20697179;28;20077;-85
2022/10/25 11:31:59;;;;;;;3.97;0.93;;;19.30;60.10;;;;;;20689999;28;20145;-86
2022/10/25 11:42:22;;;;;;;3.10;0.80;;;19.40;60.10;;;;;;20756970;28;20034;-85
2022/10/25 11:52:32;;;;;;;4.13;0.70;;;19.50;60.00;;;;;;20721985;28;20049;-85
2022/10/25 12:02:57;;;;;;;1.75;1.00;;;19.50;59.90;;;;;;20704452;28;20041;-84
2022/10/25 12:13:01;;;;;;;1.00;0.68;;;19.50;59.70;;;;;;20709013;28;20078;-87
2022/10/25 12:23:02;;;;;;;2.33;0.65;;;19.60;59.50;;;;;;20687771;28;20026;-85
2022/10/25 12:33:29;;;;;;;3.85;0.90;;;19.70;59.30;;;;;;20665175;28;20034;-85
2022/10/25 12:43:37;;;;;;;2.80;0.60;;;19.70;59.70;;;;;;20729960;28;20026;-86
2022/10/25 12:54:02;;;;;;;4.25;1.02;;;19.80;59.00;;;;;;20729109;28;20033;-87
2022/10/25 13:04:27;;;;;;;1.98;0.80;;;19.80;58.90;;;;;;20686459;28;20042;-86
2022/10/25 13:14:35;;;;;;;3.00;0.93;;;19.90;58.70;;;;;;20700784;28;20042;-87
2022/10/25 13:24:40;;;;;;;1.55;0.55;;;19.90;58.50;;;;;;20719042;28;20121;-88
2022/10/25 13:34:41;;;;;;;1.98;0.82;;;19.90;58.40;;;;;;20690037;28;20059;-86
2022/10/25 13:45:05;;;;;;;1.67;0.90;;;20.00;58.40;;;;;;20691515;28;20477;-86
2022/10/25 13:55:08;;;;;;;3.33;0.80;;;19.90;58.10;;;;;;20697823;28;20046;-86
2022/10/25 14:05:10;;;;;;;1.73;0.88;;;20.00;58.10;;;;;;20683093;28;20456;-86
2022/10/25 14:15:16;;;;;;;1.50;0.63;;;20.10;57.90;;;;;;20693527;28;20034;-85
2022/10/25 14:25:22;;;;;;;1.38;0.65;;;20.10;57.70;;;;;;20705282;28;20082;-87
2022/10/25 14:35:24;;;;;;;0.60;0.57;;;20.10;57.60;;;;;;20684180;28;20041;-86
2022/10/25 14:45:26;;;;;;;3.17;0.77;;;20.20;57.40;;;;;;20734404;28;20067;-86
2022/10/25 14:55:30;;;;;;;3.03;1.30;;;20.20;57.20;;;;;;20692270;28;20034;-86
2022/10/25 15:05:31;;;;;;;1.10;0.77;;;20.30;57.10;;;;;;20692951;28;20038;-86
2022/10/25 15:15:43;;;;;;;0.80;0.52;;;20.30;57.10;;;;;;20700948;28;20288;-85
2022/10/25 15:25:44;;;;;;;1.02;0.70;;;20.30;57.10;;;;;;20702085;28;20096;-86
2022/10/25 15:35:55;;;;;;;1.50;0.60;;;20.30;57.00;;;;;;20672647;28;20488;-85
2022/10/25 15:45:56;;;;;;;1.45;0.47;;;20.20;57.00;;;;;;20676154;28;20481;-86
2022/10/25 15:55:57;;;;;;;1.85;0.63;;;20.30;57.00;;;;;;20718927;28;20036;-86
2022/10/25 16:05:57;;;;;;;0.90;0.50;;;20.30;57.00;;;;;;20675425;28;20408;-87
2022/10/25 16:16:00;;;;;;;1.40;0.75;;;20.30;57.00;;;;;;20712844;28;20281;-86
2022/10/25 16:26:00;;;;;;;1.08;0.60;;;20.20;56.90;;;;;;20690104;28;20129;-85
2022/10/25 16:36:01;;;;;;;0.57;0.52;;;20.20;56.90;;;;;;20709510;28;20095;-87
2022/10/25 16:46:01;;;;;;;0.95;0.55;;;20.20;56.90;;;;;;20693057;28;20030;-88
2022/10/25 16:56:03;;;;;;;1.55;0.60;;;20.10;56.90;;;;;;20701476;28;20567;-87
2022/10/25 17:06:06;;;;;;;1.80;0.60;;;20.10;57.00;;;;;;20696855;28;20043;-88
2022/10/25 17:16:14;;;;;;;0.52;0.50;;;20.10;57.00;;;;;;20703230;28;20034;-88
2022/10/25 17:26:15;;;;;;;1.05;0.80;;;20.10;57.10;;;;;;20726886;28;20046;-88
2022/10/25 17:36:19;;;;;;;1.88;0.63;;;20.10;57.10;;;;;;20711190;28;20033;-87
2022/10/25 17:46:22;;;;;;;0.70;0.50;;;20.10;57.10;;;;;;20726631;28;20038;-88
2022/10/25 17:56:25;;;;;;;5.45;0.75;;;20.00;57.10;;;;;;20706483;28;20444;-87
2022/10/25 18:06:29;;;;;;;1.27;0.60;;;20.00;57.20;;;;;;20699613;28;20125;-86
2022/10/25 18:16:35;;;;;;;2.53;0.60;;;20.00;57.20;;;;;;20719637;28;20176;-86
2022/10/25 18:26:36;;;;;;;1.02;0.73;;;20.00;57.20;;;;;;20689391;28;20050;-88
2022/10/25 18:36:38;;;;;;;1.25;0.65;;;20.00;57.30;;;;;;20695082;28;20045;-88
2022/10/25 18:46:38;;;;;;;2.20;0.85;;;19.90;57.30;;;;;;20670383;28;20399;-87
2022/10/25 18:56:40;;;;;;;2.33;1.00;;;19.90;57.30;;;;;;20694893;28;20053;-88
2022/10/25 19:06:43;;;;;;;1.25;0.80;;;19.90;57.30;;;;;;20700080;28;20480;-88
2022/10/25 19:16:44;;;;;;;4.60;1.30;;;19.90;57.30;;;;;;20730468;28;20412;-88
2022/10/25 19:26:44;;;;;;;1.13;0.77;;;19.90;57.40;;;;;;20697108;28;20077;-89
2022/10/25 19:36:45;;;;;;;1.20;0.75;;;19.90;57.40;;;;;;20712650;28;20771;-88
2022/10/25 19:46:50;;;;;;;1.65;0.93;;;19.80;57.40;;;;;;20694999;28;20062;-89
2022/10/25 19:56:53;;;;;;;;;;;19.80;57.40;;;;;;20740617;28;20087;-89
2022/10/25 20:06:54;;;;;;;1.08;0.73;;;19.80;57.40;;;;;;20737716;28;19921;-88
2022/10/25 20:16:55;;;;;;;1.08;0.80;;;19.80;57.40;;;;;;20705588;28;20088;-89
2022/10/25 20:26:55;;;;;;;0.80;0.70;;;19.80;57.40;;;;;;20724312;28;20060;-88
2022/10/25 20:36:56;;;;;;;2.05;0.98;;;19.70;57.30;;;;;;20735388;28;20041;-88
2022/10/25 20:46:56;;;;;;;2.83;1.08;;;19.70;57.30;;;;;;20702772;28;20095;-89
2022/10/25 20:56:58;;;;;;;2.00;1.10;;;19.70;57.30;;;;;;20662737;28;20030;-88
2022/10/25 21:07:00;;;;;;;1.00;0.77;;;19.70;57.30;;;;;;20668399;28;20157;-88
2022/10/25 21:17:00;;;;;;;4.03;0.95;;;19.60;57.30;;;;;;20680778;28;20281;-88
2022/10/25 21:27:02;;;;;;;0.80;0.80;;;19.60;57.20;;;;;;20706096;28;20465;-88
2022/10/25 21:37:02;;;;;;;2.85;1.05;;;19.60;57.90;;;;;;20684453;28;20286;-86
2022/10/25 21:47:03;;;;;;;1.85;0.90;;;19.60;57.20;;;;;;20695508;28;20527;-90
2022/10/25 21:57:04;;;;;;;1.60;0.95;;;19.50;57.10;;;;;;20731934;28;20088;-88
2022/10/25 22:07:05;;;;;;;2.00;0.80;;;19.50;57.10;;;;;;20692447;28;20034;-89
2022/10/25 22:17:07;;;;;;;1.17;0.90;;;19.50;57.10;;;;;;20668188;28;20049;-89
2022/10/25 22:27:10;;;;;;;2.85;0.95;;;19.50;57.00;;;;;;20692733;28;20464;-89
2022/10/25 22:37:10;;;;;;;1.73;0.88;;;19.50;57.00;;;;;;20679700;28;20034;-89
2022/10/25 22:47:13;;;;;;;2.50;0.80;;;19.50;56.90;;;;;;20662294;28;20121;-90
2022/10/25 22:57:15;;;;;;;2.38;1.10;;;19.50;56.90;;;;;;20686909;28;20046;-89
2022/10/25 23:07:16;;;;;;;1.77;1.38;;;19.50;57.00;;;;;;20676797;28;20046;-89
2022/10/25 23:17:18;;;;;;;2.03;1.03;;;19.40;56.80;;;;;;20681780;28;20045;-89
2022/10/25 23:27:19;;;;;;;3.42;1.00;;;19.40;56.80;;;;;;20690623;28;20064;-89
2022/10/25 23:37:20;;;;;;;1.65;1.10;;;19.30;56.70;;;;;;20643159;28;20077;-88
2022/10/25 23:47:24;;;;;;;3.00;1.20;;;19.30;56.70;;;;;;20723014;28;20038;-91
2022/10/25 23:57:25;;;;;;;2.63;0.77;;;19.40;56.80;;;;;;20709119;28;20034;-89
